sensor_id;sensor_type;location;lat;lon;timestamp;P1;durP1;ratioP1;P2;durP2;ratioP2
44116;SDS011;29781;49.480;8.512;2024-03-06T00:01:58;18.25;;;10.63;;
44116;SDS011;29781;49.480;8.512;2024-03-06T00:04:23;19.80;;;10.77;;
44116;SDS011;29781;49.480;8.512;2024-03-06T00:06:49;15.32;;;10.52;;
44116;SDS011;29781;49.480;8.512;2024-03-06T00:09:17;17.17;;;10.57;;
44116;SDS011;29781;49.480;8.512;2024-03-06T00:11:43;16.15;;;9.90;;
44116;SDS011;29781;49.480;8.512;2024-03-06T00:14:09;15.70;;;10.43;;
44116;SDS011;29781;49.480;8.512;2024-03-06T00:16:37;14.70;;;9.80;;
44116;SDS011;29781;49.480;8.512;2024-03-06T00:19:03;14.65;;;9.23;;
44116;SDS011;29781;49.480;8.512;2024-03-06T00:21:29;18.13;;;10.60;;
44116;SDS011;29781;49.480;8.512;2024-03-06T00:23:55;13.23;;;10.07;;
44116;SDS011;29781;49.480;8.512;2024-03-06T00:26:20;16.00;;;10.90;;
44116;SDS011;29781;49.480;8.512;2024-03-06T00:28:46;19.02;;;10.63;;
44116;SDS011;29781;49.480;8.512;2024-03-06T00:31:12;15.25;;;10.55;;
44116;SDS011;29781;49.480;8.512;2024-03-06T00:33:38;16.20;;;11.23;;
44116;SDS011;29781;49.480;8.512;2024-03-06T00:36:05;16.73;;;10.48;;
44116;SDS011;29781;49.480;8.512;2024-03-06T00:38:31;16.02;;;11.00;;
44116;SDS011;29781;49.480;8.512;2024-03-06T00:40:56;15.93;;;11.00;;
44116;SDS011;29781;49.480;8.512;2024-03-06T00:43:22;17.17;;;11.10;;
44116;SDS011;29781;49.480;8.512;2024-03-06T00:45:48;16.70;;;11.43;;
44116;SDS011;29781;49.480;8.512;2024-03-06T00:48:13;14.40;;;10.30;;
44116;SDS011;29781;49.480;8.512;2024-03-06T00:50:39;16.77;;;10.48;;
44116;SDS011;29781;49.480;8.512;2024-03-06T00:53:05;17.85;;;10.23;;
44116;SDS011;29781;49.480;8.512;2024-03-06T00:55:31;13.75;;;9.95;;
44116;SDS011;29781;49.480;8.512;2024-03-06T00:57:57;15.52;;;9.50;;
44116;SDS011;29781;49.480;8.512;2024-03-06T01:00:22;17.67;;;9.77;;
44116;SDS011;29781;49.480;8.512;2024-03-06T01:02:48;12.75;;;9.75;;
44116;SDS011;29781;49.480;8.512;2024-03-06T01:05:14;14.20;;;10.40;;
44116;SDS011;29781;49.480;8.512;2024-03-06T01:07:39;14.15;;;9.73;;
44116;SDS011;29781;49.480;8.512;2024-03-06T01:10:05;12.38;;;9.18;;
44116;SDS011;29781;49.480;8.512;2024-03-06T01:12:31;14.70;;;8.80;;
44116;SDS011;29781;49.480;8.512;2024-03-06T01:14:57;15.45;;;9.50;;
44116;SDS011;29781;49.480;8.512;2024-03-06T01:17:23;15.73;;;9.55;;
44116;SDS011;29781;49.480;8.512;2024-03-06T01:19:48;13.50;;;9.45;;
44116;SDS011;29781;49.480;8.512;2024-03-06T01:22:14;16.30;;;8.85;;
44116;SDS011;29781;49.480;8.512;2024-03-06T01:24:40;11.88;;;8.65;;
44116;SDS011;29781;49.480;8.512;2024-03-06T01:27:05;14.07;;;8.68;;
44116;SDS011;29781;49.480;8.512;2024-03-06T01:29:31;13.52;;;8.93;;
44116;SDS011;29781;49.480;8.512;2024-03-06T01:31:57;15.70;;;9.02;;
44116;SDS011;29781;49.480;8.512;2024-03-06T01:34:23;13.93;;;8.98;;
44116;SDS011;29781;49.480;8.512;2024-03-06T01:36:50;13.82;;;9.38;;
44116;SDS011;29781;49.480;8.512;2024-03-06T01:39:15;17.35;;;9.25;;
44116;SDS011;29781;49.480;8.512;2024-03-06T01:41:45;14.25;;;9.02;;
44116;SDS011;29781;49.480;8.512;2024-03-06T01:44:11;14.77;;;8.53;;
44116;SDS011;29781;49.480;8.512;2024-03-06T01:46:37;14.40;;;9.23;;
44116;SDS011;29781;49.480;8.512;2024-03-06T01:49:03;22.80;;;9.43;;
44116;SDS011;29781;49.480;8.512;2024-03-06T01:51:29;14.80;;;9.32;;
44116;SDS011;29781;49.480;8.512;2024-03-06T01:53:54;13.43;;;9.18;;
44116;SDS011;29781;49.480;8.512;2024-03-06T01:56:21;14.82;;;9.52;;
44116;SDS011;29781;49.480;8.512;2024-03-06T01:58:47;14.48;;;8.82;;
44116;SDS011;29781;49.480;8.512;2024-03-06T02:01:13;11.45;;;8.90;;
44116;SDS011;29781;49.480;8.512;2024-03-06T02:03:40;15.18;;;9.25;;
44116;SDS011;29781;49.480;8.512;2024-03-06T02:06:06;13.95;;;9.07;;
44116;SDS011;29781;49.480;8.512;2024-03-06T02:08:32;15.15;;;10.60;;
44116;SDS011;29781;49.480;8.512;2024-03-06T02:10:57;13.32;;;9.32;;
44116;SDS011;29781;49.480;8.512;2024-03-06T02:13:27;13.20;;;9.32;;
44116;SDS011;29781;49.480;8.512;2024-03-06T02:15:52;11.85;;;8.70;;
44116;SDS011;29781;49.480;8.512;2024-03-06T02:18:18;12.30;;;8.70;;
44116;SDS011;29781;49.480;8.512;2024-03-06T02:20:43;12.73;;;9.18;;
44116;SDS011;29781;49.480;8.512;2024-03-06T02:23:10;13.55;;;9.73;;
44116;SDS011;29781;49.480;8.512;2024-03-06T02:25:36;12.85;;;9.35;;
44116;SDS011;29781;49.480;8.512;2024-03-06T02:28:01;16.88;;;9.65;;
44116;SDS011;29781;49.480;8.512;2024-03-06T02:30:27;16.98;;;10.48;;
44116;SDS011;29781;49.480;8.512;2024-03-06T02:32:55;13.95;;;9.43;;
44116;SDS011;29781;49.480;8.512;2024-03-06T02:35:21;13.60;;;8.80;;
44116;SDS011;29781;49.480;8.512;2024-03-06T02:37:46;13.93;;;9.70;;
44116;SDS011;29781;49.480;8.512;2024-03-06T02:40:12;12.88;;;9.65;;
44116;SDS011;29781;49.480;8.512;2024-03-06T02:42:37;13.20;;;9.32;;
44116;SDS011;29781;49.480;8.512;2024-03-06T02:45:04;13.85;;;9.05;;
44116;SDS011;29781;49.480;8.512;2024-03-06T02:47:31;14.48;;;8.88;;
44116;SDS011;29781;49.480;8.512;2024-03-06T02:49:56;14.25;;;9.23;;
44116;SDS011;29781;49.480;8.512;2024-03-06T02:52:22;17.35;;;8.88;;
44116;SDS011;29781;49.480;8.512;2024-03-06T02:54:47;12.88;;;8.48;;
44116;SDS011;29781;49.480;8.512;2024-03-06T02:57:13;11.50;;;8.68;;
44116;SDS011;29781;49.480;8.512;2024-03-06T02:59:42;15.20;;;9.43;;
44116;SDS011;29781;49.480;8.512;2024-03-06T03:02:08;13.40;;;9.00;;
44116;SDS011;29781;49.480;8.512;2024-03-06T03:04:33;14.35;;;9.20;;
44116;SDS011;29781;49.480;8.512;2024-03-06T03:06:59;11.35;;;8.00;;
44116;SDS011;29781;49.480;8.512;2024-03-06T03:09:24;11.90;;;8.75;;
44116;SDS011;29781;49.480;8.512;2024-03-06T03:11:50;14.13;;;8.63;;
44116;SDS011;29781;49.480;8.512;2024-03-06T03:14:15;14.95;;;9.77;;
44116;SDS011;29781;49.480;8.512;2024-03-06T03:16:41;11.25;;;8.55;;
44116;SDS011;29781;49.480;8.512;2024-03-06T03:19:07;15.95;;;8.95;;
44116;SDS011;29781;49.480;8.512;2024-03-06T03:21:33;11.23;;;8.73;;
44116;SDS011;29781;49.480;8.512;2024-03-06T03:23:59;11.30;;;8.43;;
44116;SDS011;29781;49.480;8.512;2024-03-06T03:26:24;10.82;;;8.60;;
44116;SDS011;29781;49.480;8.512;2024-03-06T03:28:50;12.40;;;9.45;;
44116;SDS011;29781;49.480;8.512;2024-03-06T03:31:16;13.90;;;8.73;;
44116;SDS011;29781;49.480;8.512;2024-03-06T03:33:41;13.93;;;9.35;;
44116;SDS011;29781;49.480;8.512;2024-03-06T03:36:07;14.07;;;9.13;;
44116;SDS011;29781;49.480;8.512;2024-03-06T03:38:34;11.27;;;8.50;;
44116;SDS011;29781;49.480;8.512;2024-03-06T03:41:11;16.75;;;8.60;;
44116;SDS011;29781;49.480;8.512;2024-03-06T03:43:41;13.45;;;9.38;;
44116;SDS011;29781;49.480;8.512;2024-03-06T03:46:07;13.55;;;9.25;;
44116;SDS011;29781;49.480;8.512;2024-03-06T03:48:33;12.27;;;9.10;;
44116;SDS011;29781;49.480;8.512;2024-03-06T03:51:01;12.63;;;9.00;;
44116;SDS011;29781;49.480;8.512;2024-03-06T03:53:29;12.93;;;8.98;;
44116;SDS011;29781;49.480;8.512;2024-03-06T03:55:55;14.50;;;9.15;;
44116;SDS011;29781;49.480;8.512;2024-03-06T03:58:20;13.43;;;9.65;;
44116;SDS011;29781;49.480;8.512;2024-03-06T04:00:46;12.85;;;8.77;;
44116;SDS011;29781;49.480;8.512;2024-03-06T04:03:12;12.43;;;8.70;;
44116;SDS011;29781;49.480;8.512;2024-03-06T04:05:37;12.73;;;9.32;;
44116;SDS011;29781;49.480;8.512;2024-03-06T04:08:04;12.88;;;8.38;;
44116;SDS011;29781;49.480;8.512;2024-03-06T04:10:31;12.30;;;8.95;;
44116;SDS011;29781;49.480;8.512;2024-03-06T04:12:57;13.63;;;9.10;;
44116;SDS011;29781;49.480;8.512;2024-03-06T04:15:24;13.95;;;9.15;;
44116;SDS011;29781;49.480;8.512;2024-03-06T04:17:50;16.17;;;9.52;;
44116;SDS011;29781;49.480;8.512;2024-03-06T04:20:15;12.90;;;9.02;;
44116;SDS011;29781;49.480;8.512;2024-03-06T04:22:41;12.88;;;9.60;;
44116;SDS011;29781;49.480;8.512;2024-03-06T04:25:07;13.27;;;9.88;;
44116;SDS011;29781;49.480;8.512;2024-03-06T04:27:33;14.02;;;8.98;;
44116;SDS011;29781;49.480;8.512;2024-03-06T04:29:59;15.32;;;9.88;;
44116;SDS011;29781;49.480;8.512;2024-03-06T04:32:24;16.02;;;9.13;;
44116;SDS011;29781;49.480;8.512;2024-03-06T04:34:49;13.82;;;10.57;;
44116;SDS011;29781;49.480;8.512;2024-03-06T04:37:15;16.55;;;10.45;;
44116;SDS011;29781;49.480;8.512;2024-03-06T04:39:40;12.52;;;9.45;;
44116;SDS011;29781;49.480;8.512;2024-03-06T04:42:06;15.82;;;9.93;;
44116;SDS011;29781;49.480;8.512;2024-03-06T04:44:35;13.05;;;9.50;;
44116;SDS011;29781;49.480;8.512;2024-03-06T04:47:01;14.32;;;9.90;;
44116;SDS011;29781;49.480;8.512;2024-03-06T04:49:27;13.23;;;9.57;;
44116;SDS011;29781;49.480;8.512;2024-03-06T04:51:53;13.15;;;9.27;;
44116;SDS011;29781;49.480;8.512;2024-03-06T04:54:18;14.48;;;9.70;;
44116;SDS011;29781;49.480;8.512;2024-03-06T04:56:44;12.20;;;8.60;;
44116;SDS011;29781;49.480;8.512;2024-03-06T04:59:09;14.98;;;9.35;;
44116;SDS011;29781;49.480;8.512;2024-03-06T05:01:35;14.00;;;9.07;;
44116;SDS011;29781;49.480;8.512;2024-03-06T05:04:00;13.85;;;9.18;;
44116;SDS011;29781;49.480;8.512;2024-03-06T05:06:26;15.32;;;10.00;;
44116;SDS011;29781;49.480;8.512;2024-03-06T05:08:51;13.38;;;8.65;;
44116;SDS011;29781;49.480;8.512;2024-03-06T05:11:16;14.43;;;8.98;;
44116;SDS011;29781;49.480;8.512;2024-03-06T05:13:42;14.00;;;8.68;;
44116;SDS011;29781;49.480;8.512;2024-03-06T05:16:08;14.35;;;10.02;;
44116;SDS011;29781;49.480;8.512;2024-03-06T05:18:34;14.52;;;8.93;;
44116;SDS011;29781;49.480;8.512;2024-03-06T05:21:00;13.27;;;8.77;;
44116;SDS011;29781;49.480;8.512;2024-03-06T05:23:26;14.90;;;9.30;;
44116;SDS011;29781;49.480;8.512;2024-03-06T05:25:52;13.82;;;8.88;;
44116;SDS011;29781;49.480;8.512;2024-03-06T05:28:17;14.88;;;8.98;;
44116;SDS011;29781;49.480;8.512;2024-03-06T05:30:43;14.07;;;9.30;;
44116;SDS011;29781;49.480;8.512;2024-03-06T05:33:08;13.45;;;8.07;;
44116;SDS011;29781;49.480;8.512;2024-03-06T05:35:34;17.70;;;8.32;;
44116;SDS011;29781;49.480;8.512;2024-03-06T05:37:59;15.68;;;7.85;;
44116;SDS011;29781;49.480;8.512;2024-03-06T05:40:25;13.20;;;8.15;;
44116;SDS011;29781;49.480;8.512;2024-03-06T05:42:50;11.20;;;7.75;;
44116;SDS011;29781;49.480;8.512;2024-03-06T05:45:16;13.13;;;8.38;;
44116;SDS011;29781;49.480;8.512;2024-03-06T05:47:42;13.30;;;8.32;;
44116;SDS011;29781;49.480;8.512;2024-03-06T05:50:07;12.10;;;8.18;;
44116;SDS011;29781;49.480;8.512;2024-03-06T05:52:35;13.55;;;8.18;;
44116;SDS011;29781;49.480;8.512;2024-03-06T05:55:01;12.00;;;8.15;;
44116;SDS011;29781;49.480;8.512;2024-03-06T05:57:27;12.98;;;8.10;;
44116;SDS011;29781;49.480;8.512;2024-03-06T05:59:53;12.55;;;8.70;;
44116;SDS011;29781;49.480;8.512;2024-03-06T06:02:18;11.77;;;7.63;;
44116;SDS011;29781;49.480;8.512;2024-03-06T06:04:47;15.15;;;7.80;;
44116;SDS011;29781;49.480;8.512;2024-03-06T06:07:12;19.88;;;7.88;;
44116;SDS011;29781;49.480;8.512;2024-03-06T06:09:38;13.05;;;8.02;;
44116;SDS011;29781;49.480;8.512;2024-03-06T06:12:04;11.80;;;8.10;;
44116;SDS011;29781;49.480;8.512;2024-03-06T06:14:29;12.27;;;7.93;;
44116;SDS011;29781;49.480;8.512;2024-03-06T06:16:58;19.42;;;7.80;;
44116;SDS011;29781;49.480;8.512;2024-03-06T06:19:24;13.35;;;8.18;;
44116;SDS011;29781;49.480;8.512;2024-03-06T06:21:51;10.32;;;8.10;;
44116;SDS011;29781;49.480;8.512;2024-03-06T06:24:18;10.88;;;7.63;;
44116;SDS011;29781;49.480;8.512;2024-03-06T06:26:44;11.57;;;7.70;;
44116;SDS011;29781;49.480;8.512;2024-03-06T06:29:10;10.32;;;7.38;;
44116;SDS011;29781;49.480;8.512;2024-03-06T06:31:35;9.95;;;7.13;;
44116;SDS011;29781;49.480;8.512;2024-03-06T06:34:01;12.38;;;7.38;;
44116;SDS011;29781;49.480;8.512;2024-03-06T06:36:26;8.77;;;6.93;;
44116;SDS011;29781;49.480;8.512;2024-03-06T06:38:52;12.27;;;7.22;;
44116;SDS011;29781;49.480;8.512;2024-03-06T06:41:18;13.43;;;7.20;;
44116;SDS011;29781;49.480;8.512;2024-03-06T06:43:44;10.70;;;7.10;;
44116;SDS011;29781;49.480;8.512;2024-03-06T06:46:10;10.85;;;7.25;;
44116;SDS011;29781;49.480;8.512;2024-03-06T06:48:36;10.95;;;7.13;;
44116;SDS011;29781;49.480;8.512;2024-03-06T06:51:01;9.90;;;7.30;;
44116;SDS011;29781;49.480;8.512;2024-03-06T06:53:28;11.40;;;7.43;;
44116;SDS011;29781;49.480;8.512;2024-03-06T06:55:57;10.80;;;7.03;;
44116;SDS011;29781;49.480;8.512;2024-03-06T06:58:23;11.07;;;7.32;;
44116;SDS011;29781;49.480;8.512;2024-03-06T07:00:49;9.75;;;6.60;;
44116;SDS011;29781;49.480;8.512;2024-03-06T07:03:15;11.35;;;7.25;;
44116;SDS011;29781;49.480;8.512;2024-03-06T07:05:41;9.98;;;6.45;;
44116;SDS011;29781;49.480;8.512;2024-03-06T07:08:07;11.07;;;6.88;;
44116;SDS011;29781;49.480;8.512;2024-03-06T07:10:33;9.80;;;7.00;;
44116;SDS011;29781;49.480;8.512;2024-03-06T07:13:00;15.93;;;7.28;;
44116;SDS011;29781;49.480;8.512;2024-03-06T07:15:27;9.50;;;6.90;;
44116;SDS011;29781;49.480;8.512;2024-03-06T07:17:53;11.85;;;6.88;;
44116;SDS011;29781;49.480;8.512;2024-03-06T07:20:19;12.60;;;7.10;;
44116;SDS011;29781;49.480;8.512;2024-03-06T07:22:44;14.90;;;8.60;;
44116;SDS011;29781;49.480;8.512;2024-03-06T07:25:10;12.50;;;8.20;;
44116;SDS011;29781;49.480;8.512;2024-03-06T07:27:35;13.98;;;8.70;;
44116;SDS011;29781;49.480;8.512;2024-03-06T07:30:01;11.98;;;8.20;;
44116;SDS011;29781;49.480;8.512;2024-03-06T07:32:27;12.38;;;7.78;;
44116;SDS011;29781;49.480;8.512;2024-03-06T07:34:52;14.30;;;8.30;;
44116;SDS011;29781;49.480;8.512;2024-03-06T07:37:18;14.00;;;8.48;;
44116;SDS011;29781;49.480;8.512;2024-03-06T07:39:44;15.77;;;8.60;;
44116;SDS011;29781;49.480;8.512;2024-03-06T07:42:10;15.23;;;8.23;;
44116;SDS011;29781;49.480;8.512;2024-03-06T07:44:36;16.10;;;9.10;;
44116;SDS011;29781;49.480;8.512;2024-03-06T07:47:01;16.92;;;7.90;;
44116;SDS011;29781;49.480;8.512;2024-03-06T07:49:28;12.68;;;8.15;;
44116;SDS011;29781;49.480;8.512;2024-03-06T07:51:53;11.90;;;8.18;;
44116;SDS011;29781;49.480;8.512;2024-03-06T07:54:19;14.23;;;8.07;;
44116;SDS011;29781;49.480;8.512;2024-03-06T07:56:44;12.18;;;7.57;;
44116;SDS011;29781;49.480;8.512;2024-03-06T07:59:10;11.55;;;7.13;;
44116;SDS011;29781;49.480;8.512;2024-03-06T08:01:37;10.77;;;7.40;;
44116;SDS011;29781;49.480;8.512;2024-03-06T08:04:03;13.00;;;7.93;;
44116;SDS011;29781;49.480;8.512;2024-03-06T08:06:29;12.85;;;7.43;;
44116;SDS011;29781;49.480;8.512;2024-03-06T08:08:58;14.40;;;7.03;;
44116;SDS011;29781;49.480;8.512;2024-03-06T08:11:24;11.02;;;6.93;;
44116;SDS011;29781;49.480;8.512;2024-03-06T08:13:49;11.48;;;7.47;;
44116;SDS011;29781;49.480;8.512;2024-03-06T08:16:21;11.45;;;7.18;;
44116;SDS011;29781;49.480;8.512;2024-03-06T08:18:47;14.23;;;7.97;;
44116;SDS011;29781;49.480;8.512;2024-03-06T08:21:12;11.60;;;7.35;;
44116;SDS011;29781;49.480;8.512;2024-03-06T08:23:38;9.70;;;7.05;;
44116;SDS011;29781;49.480;8.512;2024-03-06T08:26:03;11.13;;;7.13;;
44116;SDS011;29781;49.480;8.512;2024-03-06T08:28:29;11.60;;;6.93;;
44116;SDS011;29781;49.480;8.512;2024-03-06T08:30:54;10.73;;;6.85;;
44116;SDS011;29781;49.480;8.512;2024-03-06T08:33:20;10.55;;;6.70;;
44116;SDS011;29781;49.480;8.512;2024-03-06T08:35:47;9.23;;;6.10;;
44116;SDS011;29781;49.480;8.512;2024-03-06T08:38:13;11.00;;;6.20;;
44116;SDS011;29781;49.480;8.512;2024-03-06T08:40:38;8.65;;;5.72;;
44116;SDS011;29781;49.480;8.512;2024-03-06T08:43:04;8.98;;;7.53;;
44116;SDS011;29781;49.480;8.512;2024-03-06T08:45:29;11.90;;;7.40;;
44116;SDS011;29781;49.480;8.512;2024-03-06T08:47:55;9.77;;;6.82;;
44116;SDS011;29781;49.480;8.512;2024-03-06T08:50:20;11.43;;;6.95;;
44116;SDS011;29781;49.480;8.512;2024-03-06T08:52:46;16.30;;;7.68;;
44116;SDS011;29781;49.480;8.512;2024-03-06T08:55:12;11.98;;;6.65;;
44116;SDS011;29781;49.480;8.512;2024-03-06T08:57:38;10.43;;;6.32;;
44116;SDS011;29781;49.480;8.512;2024-03-06T09:00:04;12.05;;;6.43;;
44116;SDS011;29781;49.480;8.512;2024-03-06T09:02:37;12.80;;;6.15;;
44116;SDS011;29781;49.480;8.512;2024-03-06T09:05:04;11.73;;;6.72;;
44116;SDS011;29781;49.480;8.512;2024-03-06T09:07:30;8.50;;;6.00;;
44116;SDS011;29781;49.480;8.512;2024-03-06T09:09:56;9.07;;;5.78;;
44116;SDS011;29781;49.480;8.512;2024-03-06T09:12:22;8.35;;;5.22;;
44116;SDS011;29781;49.480;8.512;2024-03-06T09:14:47;9.63;;;5.40;;
44116;SDS011;29781;49.480;8.512;2024-03-06T09:17:13;9.23;;;5.30;;
44116;SDS011;29781;49.480;8.512;2024-03-06T09:19:39;7.97;;;4.88;;
44116;SDS011;29781;49.480;8.512;2024-03-06T09:22:05;9.18;;;5.68;;
44116;SDS011;29781;49.480;8.512;2024-03-06T09:24:32;9.93;;;5.38;;
44116;SDS011;29781;49.480;8.512;2024-03-06T09:26:57;8.07;;;5.30;;
44116;SDS011;29781;49.480;8.512;2024-03-06T09:29:23;7.88;;;5.47;;
44116;SDS011;29781;49.480;8.512;2024-03-06T09:31:49;9.85;;;6.00;;
44116;SDS011;29781;49.480;8.512;2024-03-06T09:34:14;9.15;;;5.53;;
44116;SDS011;29781;49.480;8.512;2024-03-06T09:36:49;16.73;;;5.70;;
44116;SDS011;29781;49.480;8.512;2024-03-06T09:39:15;12.23;;;6.50;;
44116;SDS011;29781;49.480;8.512;2024-03-06T09:41:45;9.18;;;5.30;;
44116;SDS011;29781;49.480;8.512;2024-03-06T09:44:11;13.05;;;5.45;;
44116;SDS011;29781;49.480;8.512;2024-03-06T09:46:42;13.25;;;5.43;;
44116;SDS011;29781;49.480;8.512;2024-03-06T09:49:12;9.57;;;5.43;;
44116;SDS011;29781;49.480;8.512;2024-03-06T09:51:48;9.93;;;5.30;;
44116;SDS011;29781;49.480;8.512;2024-03-06T09:54:19;8.68;;;5.00;;
44116;SDS011;29781;49.480;8.512;2024-03-06T09:56:45;9.15;;;4.88;;
44116;SDS011;29781;49.480;8.512;2024-03-06T09:59:12;7.60;;;5.57;;
44116;SDS011;29781;49.480;8.512;2024-03-06T10:01:40;7.88;;;5.38;;
44116;SDS011;29781;49.480;8.512;2024-03-06T10:04:21;9.90;;;5.47;;
44116;SDS011;29781;49.480;8.512;2024-03-06T10:06:55;13.43;;;7.40;;
44116;SDS011;29781;49.480;8.512;2024-03-06T10:09:21;20.70;;;6.70;;
44116;SDS011;29781;49.480;8.512;2024-03-06T10:11:47;19.42;;;7.00;;
44116;SDS011;29781;49.480;8.512;2024-03-06T10:14:13;19.27;;;7.43;;
44116;SDS011;29781;49.480;8.512;2024-03-06T10:16:51;16.58;;;7.40;;
44116;SDS011;29781;49.480;8.512;2024-03-06T10:19:18;14.30;;;7.90;;
44116;SDS011;29781;49.480;8.512;2024-03-06T10:21:44;15.63;;;8.88;;
44116;SDS011;29781;49.480;8.512;2024-03-06T10:24:19;15.52;;;8.85;;
44116;SDS011;29781;49.480;8.512;2024-03-06T10:26:46;16.92;;;8.60;;
44116;SDS011;29781;49.480;8.512;2024-03-06T10:29:14;16.88;;;9.25;;
44116;SDS011;29781;49.480;8.512;2024-03-06T10:31:46;18.27;;;9.65;;
44116;SDS011;29781;49.480;8.512;2024-03-06T10:34:23;17.75;;;9.07;;
44116;SDS011;29781;49.480;8.512;2024-03-06T10:36:53;16.98;;;10.23;;
44116;SDS011;29781;49.480;8.512;2024-03-06T10:39:19;17.92;;;10.00;;
44116;SDS011;29781;49.480;8.512;2024-03-06T10:41:45;18.25;;;9.88;;
44116;SDS011;29781;49.480;8.512;2024-03-06T10:44:15;19.00;;;10.00;;
44116;SDS011;29781;49.480;8.512;2024-03-06T10:46:43;15.95;;;9.50;;
44116;SDS011;29781;49.480;8.512;2024-03-06T10:49:12;16.88;;;10.63;;
44116;SDS011;29781;49.480;8.512;2024-03-06T10:51:40;17.50;;;11.55;;
44116;SDS011;29781;49.480;8.512;2024-03-06T10:54:08;20.88;;;11.68;;
44116;SDS011;29781;49.480;8.512;2024-03-06T10:56:37;14.27;;;10.10;;
44116;SDS011;29781;49.480;8.512;2024-03-06T10:59:09;13.52;;;9.85;;
44116;SDS011;29781;49.480;8.512;2024-03-06T11:01:38;13.05;;;9.77;;
44116;SDS011;29781;49.480;8.512;2024-03-06T11:04:05;13.20;;;9.70;;
44116;SDS011;29781;49.480;8.512;2024-03-06T11:06:31;16.48;;;9.95;;
44116;SDS011;29781;49.480;8.512;2024-03-06T11:08:58;16.63;;;10.35;;
44116;SDS011;29781;49.480;8.512;2024-03-06T11:11:24;13.07;;;9.75;;
44116;SDS011;29781;49.480;8.512;2024-03-06T11:13:50;12.75;;;9.32;;
44116;SDS011;29781;49.480;8.512;2024-03-06T11:16:26;13.88;;;9.85;;
44116;SDS011;29781;49.480;8.512;2024-03-06T11:18:52;13.13;;;9.90;;
44116;SDS011;29781;49.480;8.512;2024-03-06T11:21:33;15.57;;;10.40;;
44116;SDS011;29781;49.480;8.512;2024-03-06T11:24:17;13.27;;;9.95;;
44116;SDS011;29781;49.480;8.512;2024-03-06T11:26:48;14.10;;;9.35;;
44116;SDS011;29781;49.480;8.512;2024-03-06T11:32:56;16.30;;;10.68;;
44116;SDS011;29781;49.480;8.512;2024-03-06T11:35:28;14.85;;;10.52;;
44116;SDS011;29781;49.480;8.512;2024-03-06T11:37:54;17.17;;;12.50;;
44116;SDS011;29781;49.480;8.512;2024-03-06T11:40:23;16.50;;;11.45;;
44116;SDS011;29781;49.480;8.512;2024-03-06T11:42:52;15.48;;;11.25;;
44116;SDS011;29781;49.480;8.512;2024-03-06T11:45:17;21.45;;;12.73;;
44116;SDS011;29781;49.480;8.512;2024-03-06T11:48:00;18.98;;;11.93;;
44116;SDS011;29781;49.480;8.512;2024-03-06T11:50:27;15.93;;;10.88;;
44116;SDS011;29781;49.480;8.512;2024-03-06T11:52:53;18.70;;;11.75;;
44116;SDS011;29781;49.480;8.512;2024-03-06T11:55:20;19.05;;;12.23;;
44116;SDS011;29781;49.480;8.512;2024-03-06T11:57:47;19.85;;;11.68;;
44116;SDS011;29781;49.480;8.512;2024-03-06T12:00:12;16.35;;;11.43;;
44116;SDS011;29781;49.480;8.512;2024-03-06T12:02:39;17.48;;;12.38;;
44116;SDS011;29781;49.480;8.512;2024-03-06T12:05:05;17.63;;;12.35;;
44116;SDS011;29781;49.480;8.512;2024-03-06T12:07:31;20.85;;;13.40;;
44116;SDS011;29781;49.480;8.512;2024-03-06T12:09:58;16.67;;;12.02;;
44116;SDS011;29781;49.480;8.512;2024-03-06T12:12:24;18.95;;;12.18;;
44116;SDS011;29781;49.480;8.512;2024-03-06T12:14:57;18.40;;;12.63;;
44116;SDS011;29781;49.480;8.512;2024-03-06T12:17:24;21.33;;;13.02;;
44116;SDS011;29781;49.480;8.512;2024-03-06T12:19:50;20.08;;;13.05;;
44116;SDS011;29781;49.480;8.512;2024-03-06T12:22:15;20.55;;;13.32;;
44116;SDS011;29781;49.480;8.512;2024-03-06T12:24:43;20.63;;;12.77;;
44116;SDS011;29781;49.480;8.512;2024-03-06T12:27:09;19.08;;;13.68;;
44116;SDS011;29781;49.480;8.512;2024-03-06T12:29:35;17.95;;;12.82;;
44116;SDS011;29781;49.480;8.512;2024-03-06T12:32:02;24.80;;;13.93;;
44116;SDS011;29781;49.480;8.512;2024-03-06T12:34:28;19.15;;;12.38;;
44116;SDS011;29781;49.480;8.512;2024-03-06T12:36:55;16.50;;;12.63;;
44116;SDS011;29781;49.480;8.512;2024-03-06T12:39:21;21.98;;;13.55;;
44116;SDS011;29781;49.480;8.512;2024-03-06T12:41:51;18.63;;;12.65;;
44116;SDS011;29781;49.480;8.512;2024-03-06T12:44:17;19.98;;;13.55;;
44116;SDS011;29781;49.480;8.512;2024-03-06T12:46:44;19.63;;;13.23;;
44116;SDS011;29781;49.480;8.512;2024-03-06T12:49:09;20.83;;;13.95;;
44116;SDS011;29781;49.480;8.512;2024-03-06T12:51:35;21.80;;;13.48;;
44116;SDS011;29781;49.480;8.512;2024-03-06T12:54:01;20.85;;;13.88;;
44116;SDS011;29781;49.480;8.512;2024-03-06T12:56:26;19.45;;;13.57;;
44116;SDS011;29781;49.480;8.512;2024-03-06T12:58:52;18.90;;;13.02;;
44116;SDS011;29781;49.480;8.512;2024-03-06T13:01:17;20.38;;;13.05;;
44116;SDS011;29781;49.480;8.512;2024-03-06T13:03:43;19.77;;;13.15;;
44116;SDS011;29781;49.480;8.512;2024-03-06T13:06:09;20.17;;;14.05;;
44116;SDS011;29781;49.480;8.512;2024-03-06T13:08:35;20.85;;;14.95;;
44116;SDS011;29781;49.480;8.512;2024-03-06T13:11:01;22.67;;;15.02;;
44116;SDS011;29781;49.480;8.512;2024-03-06T13:13:26;23.88;;;14.90;;
44116;SDS011;29781;49.480;8.512;2024-03-06T13:15:54;22.45;;;15.10;;
44116;SDS011;29781;49.480;8.512;2024-03-06T13:18:19;22.15;;;14.70;;
44116;SDS011;29781;49.480;8.512;2024-03-06T13:20:45;22.33;;;16.27;;
44116;SDS011;29781;49.480;8.512;2024-03-06T13:23:11;25.92;;;14.90;;
44116;SDS011;29781;49.480;8.512;2024-03-06T13:25:37;27.95;;;17.02;;
44116;SDS011;29781;49.480;8.512;2024-03-06T13:28:03;24.88;;;17.17;;
44116;SDS011;29781;49.480;8.512;2024-03-06T13:30:28;25.23;;;17.65;;
44116;SDS011;29781;49.480;8.512;2024-03-06T13:32:54;23.92;;;16.98;;
44116;SDS011;29781;49.480;8.512;2024-03-06T13:35:20;25.35;;;16.92;;
44116;SDS011;29781;49.480;8.512;2024-03-06T13:37:45;26.05;;;16.02;;
44116;SDS011;29781;49.480;8.512;2024-03-06T13:40:12;24.92;;;16.00;;
44116;SDS011;29781;49.480;8.512;2024-03-06T13:42:40;23.27;;;14.95;;
44116;SDS011;29781;49.480;8.512;2024-03-06T13:45:07;22.45;;;15.20;;
44116;SDS011;29781;49.480;8.512;2024-03-06T13:47:36;23.02;;;14.80;;
44116;SDS011;29781;49.480;8.512;2024-03-06T13:50:09;20.10;;;14.82;;
44116;SDS011;29781;49.480;8.512;2024-03-06T13:52:39;20.70;;;13.73;;
44116;SDS011;29781;49.480;8.512;2024-03-06T13:55:06;27.00;;;14.15;;
44116;SDS011;29781;49.480;8.512;2024-03-06T13:57:32;21.17;;;14.15;;
44116;SDS011;29781;49.480;8.512;2024-03-06T14:00:02;21.38;;;14.45;;
44116;SDS011;29781;49.480;8.512;2024-03-06T14:02:30;18.75;;;13.02;;
44116;SDS011;29781;49.480;8.512;2024-03-06T14:04:56;20.92;;;14.07;;
44116;SDS011;29781;49.480;8.512;2024-03-06T14:07:21;22.13;;;14.30;;
44116;SDS011;29781;49.480;8.512;2024-03-06T14:09:48;22.30;;;13.98;;
44116;SDS011;29781;49.480;8.512;2024-03-06T14:12:17;23.00;;;14.10;;
44116;SDS011;29781;49.480;8.512;2024-03-06T14:14:42;20.08;;;13.75;;
44116;SDS011;29781;49.480;8.512;2024-03-06T14:17:10;26.58;;;17.25;;
44116;SDS011;29781;49.480;8.512;2024-03-06T14:19:36;22.40;;;14.05;;
44116;SDS011;29781;49.480;8.512;2024-03-06T14:22:01;21.98;;;15.43;;
44116;SDS011;29781;49.480;8.512;2024-03-06T14:24:27;23.05;;;15.10;;
44116;SDS011;29781;49.480;8.512;2024-03-06T14:26:52;21.77;;;13.75;;
44116;SDS011;29781;49.480;8.512;2024-03-06T14:29:18;19.83;;;12.73;;
44116;SDS011;29781;49.480;8.512;2024-03-06T14:31:43;19.05;;;12.82;;